sensor_id;sensor_type;location;lat;lon;timestamp;P1;durP1;ratioP1;P2;durP2;ratioP2
27977;SDS011;15314;49.248;6.968;2023-04-03T00:00:02;9.48;;;8.88;;
27977;SDS011;15314;49.248;6.968;2023-04-03T00:01:04;8.65;;;8.15;;
27977;SDS011;15314;49.248;6.968;2023-04-03T00:02:05;8.93;;;8.40;;
27977;SDS011;15314;49.248;6.968;2023-04-03T00:03:06;9.18;;;8.57;;
27977;SDS011;15314;49.248;6.968;2023-04-03T00:04:07;8.80;;;8.10;;
27977;SDS011;15314;49.248;6.968;2023-04-03T00:05:08;8.45;;;7.95;;
27977;SDS011;15314;49.248;6.968;2023-04-03T00:06:09;9.20;;;8.60;;
27977;SDS011;15314;49.248;6.968;2023-04-03T00:07:11;8.30;;;7.90;;
27977;SDS011;15314;49.248;6.968;2023-04-03T00:08:12;8.45;;;7.95;;
27977;SDS011;15314;49.248;6.968;2023-04-03T00:09:13;8.23;;;7.72;;
27977;SDS011;15314;49.248;6.968;2023-04-03T00:10:14;8.73;;;8.23;;
27977;SDS011;15314;49.248;6.968;2023-04-03T00:11:15;8.85;;;8.23;;
27977;SDS011;15314;49.248;6.968;2023-04-03T00:12:16;8.55;;;8.02;;
27977;SDS011;15314;49.248;6.968;2023-04-03T00:13:17;8.30;;;7.80;;
27977;SDS011;15314;49.248;6.968;2023-04-03T00:14:18;7.95;;;7.55;;
27977;SDS011;15314;49.248;6.968;2023-04-03T00:15:18;8.13;;;7.72;;
27977;SDS011;15314;49.248;6.968;2023-04-03T00:16:19;8.25;;;7.80;;
27977;SDS011;15314;49.248;6.968;2023-04-03T00:17:20;8.30;;;7.80;;
27977;SDS011;15314;49.248;6.968;2023-04-03T00:18:21;8.50;;;8.00;;
27977;SDS011;15314;49.248;6.968;2023-04-03T00:19:23;8.13;;;7.68;;
27977;SDS011;15314;49.248;6.968;2023-04-03T00:20:23;8.32;;;7.82;;
27977;SDS011;15314;49.248;6.968;2023-04-03T00:21:24;8.77;;;8.27;;
27977;SDS011;15314;49.248;6.968;2023-04-03T00:22:26;8.20;;;7.75;;
27977;SDS011;15314;49.248;6.968;2023-04-03T00:23:28;8.70;;;8.20;;
27977;SDS011;15314;49.248;6.968;2023-04-03T00:24:29;8.75;;;8.15;;
27977;SDS011;15314;49.248;6.968;2023-04-03T00:25:29;9.05;;;8.55;;
27977;SDS011;15314;49.248;6.968;2023-04-03T00:26:30;8.35;;;7.80;;
27977;SDS011;15314;49.248;6.968;2023-04-03T00:27:31;9.52;;;8.65;;
27977;SDS011;15314;49.248;6.968;2023-04-03T00:28:31;8.02;;;7.63;;
27977;SDS011;15314;49.248;6.968;2023-04-03T00:29:32;8.55;;;7.93;;
27977;SDS011;15314;49.248;6.968;2023-04-03T00:30:33;8.45;;;7.95;;
27977;SDS011;15314;49.248;6.968;2023-04-03T00:31:34;9.00;;;8.35;;
27977;SDS011;15314;49.248;6.968;2023-04-03T00:32:35;8.95;;;8.35;;
27977;SDS011;15314;49.248;6.968;2023-04-03T00:33:35;8.70;;;8.20;;
27977;SDS011;15314;49.248;6.968;2023-04-03T00:34:36;8.32;;;7.93;;
27977;SDS011;15314;49.248;6.968;2023-04-03T00:35:37;8.55;;;7.95;;
27977;SDS011;15314;49.248;6.968;2023-04-03T00:36:38;8.70;;;8.10;;
27977;SDS011;15314;49.248;6.968;2023-04-03T00:37:38;9.38;;;8.73;;
27977;SDS011;15314;49.248;6.968;2023-04-03T00:38:39;8.32;;;7.82;;
27977;SDS011;15314;49.248;6.968;2023-04-03T00:39:40;8.77;;;8.25;;
27977;SDS011;15314;49.248;6.968;2023-04-03T00:40:42;9.10;;;8.50;;
27977;SDS011;15314;49.248;6.968;2023-04-03T00:41:44;9.38;;;8.68;;
27977;SDS011;15314;49.248;6.968;2023-04-03T00:42:45;8.75;;;8.30;;
27977;SDS011;15314;49.248;6.968;2023-04-03T00:43:48;9.43;;;8.70;;
27977;SDS011;15314;49.248;6.968;2023-04-03T00:45:56;8.90;;;8.30;;
27977;SDS011;15314;49.248;6.968;2023-04-03T00:46:57;8.52;;;7.93;;
27977;SDS011;15314;49.248;6.968;2023-04-03T00:47:58;8.43;;;7.93;;
27977;SDS011;15314;49.248;6.968;2023-04-03T00:49:01;8.32;;;7.85;;
27977;SDS011;15314;49.248;6.968;2023-04-03T00:50:01;8.25;;;7.85;;
27977;SDS011;15314;49.248;6.968;2023-04-03T00:51:03;8.70;;;8.10;;
27977;SDS011;15314;49.248;6.968;2023-04-03T00:52:07;8.75;;;8.25;;
27977;SDS011;15314;49.248;6.968;2023-04-03T00:53:13;8.80;;;8.30;;
27977;SDS011;15314;49.248;6.968;2023-04-03T00:54:21;8.65;;;8.05;;
27977;SDS011;15314;49.248;6.968;2023-04-03T00:55:21;8.73;;;8.07;;
27977;SDS011;15314;49.248;6.968;2023-04-03T00:56:23;8.20;;;7.70;;
27977;SDS011;15314;49.248;6.968;2023-04-03T00:57:26;8.18;;;7.65;;
27977;SDS011;15314;49.248;6.968;2023-04-03T00:58:30;8.65;;;8.13;;
27977;SDS011;15314;49.248;6.968;2023-04-03T00:59:51;8.38;;;7.88;;
27977;SDS011;15314;49.248;6.968;2023-04-03T01:00:57;8.70;;;8.20;;
27977;SDS011;15314;49.248;6.968;2023-04-03T01:01:58;9.05;;;8.20;;
27977;SDS011;15314;49.248;6.968;2023-04-03T01:03:00;8.63;;;7.93;;
27977;SDS011;15314;49.248;6.968;2023-04-03T01:04:01;8.98;;;8.35;;
27977;SDS011;15314;49.248;6.968;2023-04-03T01:05:03;9.05;;;8.43;;
27977;SDS011;15314;49.248;6.968;2023-04-03T01:06:04;8.63;;;7.97;;
27977;SDS011;15314;49.248;6.968;2023-04-03T01:07:10;8.75;;;8.05;;
27977;SDS011;15314;49.248;6.968;2023-04-03T01:08:14;8.60;;;7.88;;
27977;SDS011;15314;49.248;6.968;2023-04-03T01:09:15;8.07;;;7.57;;
27977;SDS011;15314;49.248;6.968;2023-04-03T01:10:15;8.27;;;7.75;;
27977;SDS011;15314;49.248;6.968;2023-04-03T01:11:19;8.45;;;7.88;;
27977;SDS011;15314;49.248;6.968;2023-04-03T01:13:31;8.48;;;8.07;;
27977;SDS011;15314;49.248;6.968;2023-04-03T01:14:33;8.18;;;7.65;;
27977;SDS011;15314;49.248;6.968;2023-04-03T01:15:33;8.27;;;7.82;;
27977;SDS011;15314;49.248;6.968;2023-04-03T01:16:35;8.63;;;8.07;;
27977;SDS011;15314;49.248;6.968;2023-04-03T01:18:46;9.18;;;8.60;;
27977;SDS011;15314;49.248;6.968;2023-04-03T01:19:47;8.48;;;7.88;;
27977;SDS011;15314;49.248;6.968;2023-04-03T01:22:19;8.77;;;8.10;;
27977;SDS011;15314;49.248;6.968;2023-04-03T01:25:34;10.13;;;9.23;;
27977;SDS011;15314;49.248;6.968;2023-04-03T01:26:37;9.07;;;8.30;;
27977;SDS011;15314;49.248;6.968;2023-04-03T01:27:37;9.45;;;8.65;;
27977;SDS011;15314;49.248;6.968;2023-04-03T01:28:38;9.25;;;8.40;;
27977;SDS011;15314;49.248;6.968;2023-04-03T01:29:39;9.60;;;8.63;;
27977;SDS011;15314;49.248;6.968;2023-04-03T01:30:43;9.32;;;8.57;;
27977;SDS011;15314;49.248;6.968;2023-04-03T01:32:10;9.45;;;8.55;;
27977;SDS011;15314;49.248;6.968;2023-04-03T01:33:11;9.18;;;8.48;;
27977;SDS011;15314;49.248;6.968;2023-04-03T01:34:12;9.07;;;8.52;;
27977;SDS011;15314;49.248;6.968;2023-04-03T01:35:12;8.68;;;8.15;;
27977;SDS011;15314;49.248;6.968;2023-04-03T01:36:17;8.73;;;7.95;;
27977;SDS011;15314;49.248;6.968;2023-04-03T01:37:24;9.13;;;8.52;;
27977;SDS011;15314;49.248;6.968;2023-04-03T01:38:25;8.45;;;7.85;;
27977;SDS011;15314;49.248;6.968;2023-04-03T01:39:25;8.68;;;8.18;;
27977;SDS011;15314;49.248;6.968;2023-04-03T01:40:26;8.55;;;7.95;;
27977;SDS011;15314;49.248;6.968;2023-04-03T01:41:27;8.73;;;8.18;;
27977;SDS011;15314;49.248;6.968;2023-04-03T01:42:28;9.38;;;8.60;;
27977;SDS011;15314;49.248;6.968;2023-04-03T01:43:29;11.65;;;9.73;;
27977;SDS011;15314;49.248;6.968;2023-04-03T01:44:30;8.95;;;8.30;;
27977;SDS011;15314;49.248;6.968;2023-04-03T01:45:30;9.32;;;8.63;;
27977;SDS011;15314;49.248;6.968;2023-04-03T01:46:31;8.68;;;8.00;;
27977;SDS011;15314;49.248;6.968;2023-04-03T01:47:32;9.25;;;8.50;;
27977;SDS011;15314;49.248;6.968;2023-04-03T01:48:32;9.82;;;8.85;;
27977;SDS011;15314;49.248;6.968;2023-04-03T01:49:33;8.90;;;8.30;;
27977;SDS011;15314;49.248;6.968;2023-04-03T01:50:34;11.27;;;9.45;;
27977;SDS011;15314;49.248;6.968;2023-04-03T01:51:35;9.77;;;9.00;;
27977;SDS011;15314;49.248;6.968;2023-04-03T01:52:36;9.65;;;8.75;;
27977;SDS011;15314;49.248;6.968;2023-04-03T01:53:36;19.20;;;10.95;;
27977;SDS011;15314;49.248;6.968;2023-04-03T01:54:37;17.73;;;10.95;;
27977;SDS011;15314;49.248;6.968;2023-04-03T01:55:38;33.90;;;13.05;;
27977;SDS011;15314;49.248;6.968;2023-04-03T01:56:38;31.13;;;13.13;;
27977;SDS011;15314;49.248;6.968;2023-04-03T01:57:39;23.15;;;12.80;;
27977;SDS011;15314;49.248;6.968;2023-04-03T01:58:40;29.95;;;14.40;;
27977;SDS011;15314;49.248;6.968;2023-04-03T01:59:40;18.83;;;10.88;;
27977;SDS011;15314;49.248;6.968;2023-04-03T02:00:41;11.40;;;9.55;;
27977;SDS011;15314;49.248;6.968;2023-04-03T02:01:42;10.80;;;9.43;;
27977;SDS011;15314;49.248;6.968;2023-04-03T02:02:45;10.90;;;9.88;;
27977;SDS011;15314;49.248;6.968;2023-04-03T02:03:45;12.40;;;10.30;;
27977;SDS011;15314;49.248;6.968;2023-04-03T02:04:46;11.65;;;9.57;;
27977;SDS011;15314;49.248;6.968;2023-04-03T02:05:47;12.07;;;9.73;;
27977;SDS011;15314;49.248;6.968;2023-04-03T02:06:47;10.73;;;9.82;;
27977;SDS011;15314;49.248;6.968;2023-04-03T02:07:48;12.90;;;10.27;;
27977;SDS011;15314;49.248;6.968;2023-04-03T02:08:49;11.10;;;10.07;;
27977;SDS011;15314;49.248;6.968;2023-04-03T02:09:49;11.50;;;10.45;;
27977;SDS011;15314;49.248;6.968;2023-04-03T02:10:50;10.70;;;9.63;;
27977;SDS011;15314;49.248;6.968;2023-04-03T02:11:52;9.93;;;9.20;;
27977;SDS011;15314;49.248;6.968;2023-04-03T02:12:53;9.52;;;8.80;;
27977;SDS011;15314;49.248;6.968;2023-04-03T02:13:53;9.45;;;8.63;;
27977;SDS011;15314;49.248;6.968;2023-04-03T02:14:54;9.15;;;8.52;;
27977;SDS011;15314;49.248;6.968;2023-04-03T02:15:55;10.20;;;9.48;;
27977;SDS011;15314;49.248;6.968;2023-04-03T02:16:55;10.50;;;9.70;;
27977;SDS011;15314;49.248;6.968;2023-04-03T02:17:56;8.60;;;8.10;;
27977;SDS011;15314;49.248;6.968;2023-04-03T02:18:57;9.05;;;8.23;;
27977;SDS011;15314;49.248;6.968;2023-04-03T02:19:57;8.75;;;8.25;;
27977;SDS011;15314;49.248;6.968;2023-04-03T02:20:58;8.60;;;7.90;;
27977;SDS011;15314;49.248;6.968;2023-04-03T02:21:59;9.02;;;8.50;;
27977;SDS011;15314;49.248;6.968;2023-04-03T02:22:59;9.27;;;8.70;;
27977;SDS011;15314;49.248;6.968;2023-04-03T02:24:00;9.43;;;8.90;;
27977;SDS011;15314;49.248;6.968;2023-04-03T02:25:01;9.30;;;8.70;;
27977;SDS011;15314;49.248;6.968;2023-04-03T02:26:09;9.27;;;8.63;;
27977;SDS011;15314;49.248;6.968;2023-04-03T02:27:11;8.82;;;8.23;;
27977;SDS011;15314;49.248;6.968;2023-04-03T02:28:12;9.27;;;8.57;;
27977;SDS011;15314;49.248;6.968;2023-04-03T02:29:13;8.95;;;8.20;;
27977;SDS011;15314;49.248;6.968;2023-04-03T02:30:13;8.57;;;8.07;;
27977;SDS011;15314;49.248;6.968;2023-04-03T02:31:14;9.05;;;8.38;;
27977;SDS011;15314;49.248;6.968;2023-04-03T02:32:15;9.30;;;8.57;;
27977;SDS011;15314;49.248;6.968;2023-04-03T02:33:16;9.45;;;8.65;;
27977;SDS011;15314;49.248;6.968;2023-04-03T02:34:17;9.43;;;8.73;;
27977;SDS011;15314;49.248;6.968;2023-04-03T02:35:17;9.45;;;8.73;;
27977;SDS011;15314;49.248;6.968;2023-04-03T02:36:18;9.13;;;8.45;;
27977;SDS011;15314;49.248;6.968;2023-04-03T02:37:19;9.00;;;8.30;;
27977;SDS011;15314;49.248;6.968;2023-04-03T02:38:19;8.80;;;8.20;;
27977;SDS011;15314;49.248;6.968;2023-04-03T02:39:20;9.13;;;8.48;;
27977;SDS011;15314;49.248;6.968;2023-04-03T02:40:21;8.90;;;8.30;;
27977;SDS011;15314;49.248;6.968;2023-04-03T02:41:21;10.70;;;8.77;;
27977;SDS011;15314;49.248;6.968;2023-04-03T02:42:22;8.18;;;7.75;;
27977;SDS011;15314;49.248;6.968;2023-04-03T02:43:23;8.85;;;8.25;;
27977;SDS011;15314;49.248;6.968;2023-04-03T02:44:23;8.88;;;8.25;;
27977;SDS011;15314;49.248;6.968;2023-04-03T02:45:24;9.25;;;8.60;;
27977;SDS011;15314;49.248;6.968;2023-04-03T02:46:25;9.25;;;8.45;;
27977;SDS011;15314;49.248;6.968;2023-04-03T02:47:26;8.93;;;8.32;;
27977;SDS011;15314;49.248;6.968;2023-04-03T02:48:28;9.10;;;8.50;;
27977;SDS011;15314;49.248;6.968;2023-04-03T02:49:29;8.90;;;8.25;;
27977;SDS011;15314;49.248;6.968;2023-04-03T02:50:30;9.13;;;8.32;;
27977;SDS011;15314;49.248;6.968;2023-04-03T02:51:30;9.15;;;8.65;;
27977;SDS011;15314;49.248;6.968;2023-04-03T02:52:31;9.40;;;8.63;;
27977;SDS011;15314;49.248;6.968;2023-04-03T02:53:32;9.30;;;8.57;;
27977;SDS011;15314;49.248;6.968;2023-04-03T02:54:32;8.45;;;7.85;;
27977;SDS011;15314;49.248;6.968;2023-04-03T02:55:33;8.85;;;8.25;;
27977;SDS011;15314;49.248;6.968;2023-04-03T02:56:34;9.80;;;9.02;;
27977;SDS011;15314;49.248;6.968;2023-04-03T02:57:34;9.25;;;8.65;;
27977;SDS011;15314;49.248;6.968;2023-04-03T02:58:35;9.23;;;8.57;;
27977;SDS011;15314;49.248;6.968;2023-04-03T02:59:36;10.10;;;9.32;;
27977;SDS011;15314;49.248;6.968;2023-04-03T03:00:40;9.20;;;8.60;;
27977;SDS011;15314;49.248;6.968;2023-04-03T03:01:41;8.63;;;8.13;;
27977;SDS011;15314;49.248;6.968;2023-04-03T03:02:41;8.85;;;8.25;;
27977;SDS011;15314;49.248;6.968;2023-04-03T03:03:42;8.57;;;7.97;;
27977;SDS011;15314;49.248;6.968;2023-04-03T03:04:43;9.27;;;8.75;;
27977;SDS011;15314;49.248;6.968;2023-04-03T03:05:43;8.57;;;7.90;;
27977;SDS011;15314;49.248;6.968;2023-04-03T03:06:44;8.27;;;7.78;;
27977;SDS011;15314;49.248;6.968;2023-04-03T03:07:44;8.77;;;8.20;;
27977;SDS011;15314;49.248;6.968;2023-04-03T03:08:45;8.05;;;7.55;;
27977;SDS011;15314;49.248;6.968;2023-04-03T03:09:46;9.00;;;8.35;;
27977;SDS011;15314;49.248;6.968;2023-04-03T03:10:46;7.97;;;7.50;;
27977;SDS011;15314;49.248;6.968;2023-04-03T03:11:47;9.32;;;8.63;;
27977;SDS011;15314;49.248;6.968;2023-04-03T03:12:48;8.68;;;8.07;;
27977;SDS011;15314;49.248;6.968;2023-04-03T03:13:49;9.73;;;8.90;;
27977;SDS011;15314;49.248;6.968;2023-04-03T03:14:49;9.10;;;8.27;;
27977;SDS011;15314;49.248;6.968;2023-04-03T03:15:50;9.65;;;8.90;;
27977;SDS011;15314;49.248;6.968;2023-04-03T03:16:51;9.35;;;8.63;;
27977;SDS011;15314;49.248;6.968;2023-04-03T03:17:52;9.02;;;8.43;;
27977;SDS011;15314;49.248;6.968;2023-04-03T03:18:52;8.65;;;7.95;;
27977;SDS011;15314;49.248;6.968;2023-04-03T03:19:53;7.65;;;7.15;;
27977;SDS011;15314;49.248;6.968;2023-04-03T03:20:54;8.95;;;8.27;;
27977;SDS011;15314;49.248;6.968;2023-04-03T03:21:56;8.43;;;7.88;;
27977;SDS011;15314;49.248;6.968;2023-04-03T03:22:57;8.95;;;8.25;;
27977;SDS011;15314;49.248;6.968;2023-04-03T03:23:57;13.05;;;11.77;;
27977;SDS011;15314;49.248;6.968;2023-04-03T03:24:58;13.10;;;11.80;;
27977;SDS011;15314;49.248;6.968;2023-04-03T03:26:00;12.50;;;11.45;;
27977;SDS011;15314;49.248;6.968;2023-04-03T03:27:02;9.98;;;9.27;;
27977;SDS011;15314;49.248;6.968;2023-04-03T03:28:03;9.82;;;9.05;;
27977;SDS011;15314;49.248;6.968;2023-04-03T03:29:04;9.82;;;9.02;;
27977;SDS011;15314;49.248;6.968;2023-04-03T03:30:05;8.60;;;8.05;;
27977;SDS011;15314;49.248;6.968;2023-04-03T03:31:06;8.90;;;8.00;;
27977;SDS011;15314;49.248;6.968;2023-04-03T03:32:08;8.43;;;7.93;;
27977;SDS011;15314;49.248;6.968;2023-04-03T03:33:09;8.82;;;8.05;;
27977;SDS011;15314;49.248;6.968;2023-04-03T03:34:09;9.45;;;8.85;;
27977;SDS011;15314;49.248;6.968;2023-04-03T03:35:10;8.57;;;8.05;;
27977;SDS011;15314;49.248;6.968;2023-04-03T03:36:11;8.63;;;8.02;;
27977;SDS011;15314;49.248;6.968;2023-04-03T03:37:12;8.85;;;8.25;;
27977;SDS011;15314;49.248;6.968;2023-04-03T03:38:12;8.55;;;7.80;;
27977;SDS011;15314;49.248;6.968;2023-04-03T03:39:13;9.00;;;8.32;;
27977;SDS011;15314;49.248;6.968;2023-04-03T03:40:14;8.35;;;7.85;;
27977;SDS011;15314;49.248;6.968;2023-04-03T03:41:14;8.90;;;8.40;;
27977;SDS011;15314;49.248;6.968;2023-04-03T03:42:15;8.52;;;7.85;;
27977;SDS011;15314;49.248;6.968;2023-04-03T03:43:16;8.48;;;7.97;;
27977;SDS011;15314;49.248;6.968;2023-04-03T03:44:18;9.43;;;8.73;;
27977;SDS011;15314;49.248;6.968;2023-04-03T03:45:18;8.93;;;8.32;;
27977;SDS011;15314;49.248;6.968;2023-04-03T03:46:19;9.32;;;8.68;;
27977;SDS011;15314;49.248;6.968;2023-04-03T03:47:20;9.80;;;9.10;;
27977;SDS011;15314;49.248;6.968;2023-04-03T03:48:21;9.30;;;8.68;;
27977;SDS011;15314;49.248;6.968;2023-04-03T03:49:22;9.70;;;9.00;;
27977;SDS011;15314;49.248;6.968;2023-04-03T03:50:23;9.00;;;8.40;;
27977;SDS011;15314;49.248;6.968;2023-04-03T03:51:23;9.35;;;8.65;;
27977;SDS011;15314;49.248;6.968;2023-04-03T03:52:24;9.45;;;8.80;;
27977;SDS011;15314;49.248;6.968;2023-04-03T03:53:26;9.93;;;9.02;;
27977;SDS011;15314;49.248;6.968;2023-04-03T03:54:26;9.63;;;9.00;;
27977;SDS011;15314;49.248;6.968;2023-04-03T03:55:27;8.65;;;8.00;;
27977;SDS011;15314;49.248;6.968;2023-04-03T03:56:27;10.23;;;9.48;;
27977;SDS011;15314;49.248;6.968;2023-04-03T03:57:28;9.88;;;8.98;;
27977;SDS011;15314;49.248;6.968;2023-04-03T03:58:29;9.63;;;8.82;;
27977;SDS011;15314;49.248;6.968;2023-04-03T03:59:37;9.20;;;8.48;;
27977;SDS011;15314;49.248;6.968;2023-04-03T04:00:40;8.82;;;8.13;;
27977;SDS011;15314;49.248;6.968;2023-04-03T04:01:41;8.70;;;8.10;;
27977;SDS011;15314;49.248;6.968;2023-04-03T04:02:42;8.52;;;7.88;;
27977;SDS011;15314;49.248;6.968;2023-04-03T04:03:43;8.48;;;7.70;;
27977;SDS011;15314;49.248;6.968;2023-04-03T04:04:43;8.88;;;8.18;;
27977;SDS011;15314;49.248;6.968;2023-04-03T04:05:44;8.82;;;8.13;;
27977;SDS011;15314;49.248;6.968;2023-04-03T04:06:45;7.95;;;7.45;;
27977;SDS011;15314;49.248;6.968;2023-04-03T04:07:45;8.27;;;7.70;;
27977;SDS011;15314;49.248;6.968;2023-04-03T04:08:46;8.18;;;7.55;;
27977;SDS011;15314;49.248;6.968;2023-04-03T04:09:47;8.23;;;7.43;;
27977;SDS011;15314;49.248;6.968;2023-04-03T04:10:48;8.15;;;7.20;;
27977;SDS011;15314;49.248;6.968;2023-04-03T04:11:48;8.55;;;7.95;;
27977;SDS011;15314;49.248;6.968;2023-04-03T04:12:49;7.90;;;7.43;;
27977;SDS011;15314;49.248;6.968;2023-04-03T04:13:51;8.23;;;7.63;;
27977;SDS011;15314;49.248;6.968;2023-04-03T04:14:51;8.70;;;7.95;;
27977;SDS011;15314;49.248;6.968;2023-04-03T04:15:52;7.93;;;7.35;;
27977;SDS011;15314;49.248;6.968;2023-04-03T04:16:53;7.97;;;7.47;;
27977;SDS011;15314;49.248;6.968;2023-04-03T04:17:53;8.13;;;7.57;;
27977;SDS011;15314;49.248;6.968;2023-04-03T04:18:54;8.43;;;7.88;;
27977;SDS011;15314;49.248;6.968;2023-04-03T04:19:55;8.85;;;8.15;;
27977;SDS011;15314;49.248;6.968;2023-04-03T04:20:56;8.43;;;7.72;;
27977;SDS011;15314;49.248;6.968;2023-04-03T04:21:56;8.60;;;8.00;;
27977;SDS011;15314;49.248;6.968;2023-04-03T04:22:57;8.43;;;7.78;;
27977;SDS011;15314;49.248;6.968;2023-04-03T04:23:58;8.85;;;7.45;;
27977;SDS011;15314;49.248;6.968;2023-04-03T04:24:58;8.68;;;7.97;;
27977;SDS011;15314;49.248;6.968;2023-04-03T04:25:59;8.52;;;7.93;;
27977;SDS011;15314;49.248;6.968;2023-04-03T04:27:00;8.13;;;7.63;;
27977;SDS011;15314;49.248;6.968;2023-04-03T04:28:00;8.20;;;7.50;;
27977;SDS011;15314;49.248;6.968;2023-04-03T04:29:01;8.50;;;7.90;;
27977;SDS011;15314;49.248;6.968;2023-04-03T04:30:02;8.63;;;7.80;;
27977;SDS011;15314;49.248;6.968;2023-04-03T04:31:03;8.05;;;7.53;;
27977;SDS011;15314;49.248;6.968;2023-04-03T04:32:04;8.75;;;8.05;;
27977;SDS011;15314;49.248;6.968;2023-04-03T04:33:05;8.27;;;7.78;;
27977;SDS011;15314;49.248;6.968;2023-04-03T04:34:05;8.80;;;7.93;;
27977;SDS011;15314;49.248;6.968;2023-04-03T04:35:06;8.10;;;7.63;;
27977;SDS011;15314;49.248;6.968;2023-04-03T04:36:07;8.82;;;8.00;;
27977;SDS011;15314;49.248;6.968;2023-04-03T04:37:08;8.82;;;8.23;;
27977;SDS011;15314;49.248;6.968;2023-04-03T04:38:08;8.68;;;8.07;;
27977;SDS011;15314;49.248;6.968;2023-04-03T04:39:09;8.50;;;7.90;;
27977;SDS011;15314;49.248;6.968;2023-04-03T04:40:10;8.80;;;8.20;;
27977;SDS011;15314;49.248;6.968;2023-04-03T04:41:11;8.95;;;8.25;;
27977;SDS011;15314;49.248;6.968;2023-04-03T04:42:11;8.68;;;8.07;;
27977;SDS011;15314;49.248;6.968;2023-04-03T04:43:12;8.25;;;7.75;;
27977;SDS011;15314;49.248;6.968;2023-04-03T04:44:14;9.60;;;8.93;;
27977;SDS011;15314;49.248;6.968;2023-04-03T04:45:15;9.43;;;8.30;;
27977;SDS011;15314;49.248;6.968;2023-04-03T04:46:16;9.60;;;8.80;;
27977;SDS011;15314;49.248;6.968;2023-04-03T04:47:17;8.35;;;7.80;;
27977;SDS011;15314;49.248;6.968;2023-04-03T04:48:17;9.05;;;8.25;;
27977;SDS011;15314;49.248;6.968;2023-04-03T04:49:18;9.00;;;8.32;;
27977;SDS011;15314;49.248;6.968;2023-04-03T04:50:19;8.90;;;8.40;;
27977;SDS011;15314;49.248;6.968;2023-04-03T04:51:19;8.48;;;7.97;;
27977;SDS011;15314;49.248;6.968;2023-04-03T04:52:20;9.13;;;8.43;;
27977;SDS011;15314;49.248;6.968;2023-04-03T04:53:21;9.23;;;8.60;;
27977;SDS011;15314;49.248;6.968;2023-04-03T04:54:21;9.30;;;8.60;;
27977;SDS011;15314;49.248;6.968;2023-04-03T04:55:22;8.95;;;8.07;;
27977;SDS011;15314;49.248;6.968;2023-04-03T04:56:23;9.00;;;8.40;;
27977;SDS011;15314;49.248;6.968;2023-04-03T04:57:23;8.75;;;8.18;;
27977;SDS011;15314;49.248;6.968;2023-04-03T04:58:24;8.90;;;8.30;;
27977;SDS011;15314;49.248;6.968;2023-04-03T04:59:25;8.98;;;8.10;;
27977;SDS011;15314;49.248;6.968;2023-04-03T05:00:26;8.75;;;7.97;;
27977;SDS011;15314;49.248;6.968;2023-04-03T05:01:26;8.73;;;8.18;;
27977;SDS011;15314;49.248;6.968;2023-04-03T05:02:27;9.40;;;8.68;;
27977;SDS011;15314;49.248;6.968;2023-04-03T05:03:28;8.50;;;7.68;;
27977;SDS011;15314;49.248;6.968;2023-04-03T05:04:29;8.35;;;7.75;;
27977;SDS011;15314;49.248;6.968;2023-04-03T05:05:30;8.93;;;8.43;;
27977;SDS011;15314;49.248;6.968;2023-04-03T05:06:30;7.97;;;7.50;;
27977;SDS011;15314;49.248;6.968;2023-04-03T05:07:31;8.80;;;8.15;;
27977;SDS011;15314;49.248;6.968;2023-04-03T05:08:32;8.77;;;8.15;;
27977;SDS011;15314;49.248;6.968;2023-04-03T05:09:33;8.85;;;8.23;;
27977;SDS011;15314;49.248;6.968;2023-04-03T05:10:33;8.68;;;7.93;;
27977;SDS011;15314;49.248;6.968;2023-04-03T05:11:34;8.20;;;7.70;;
27977;SDS011;15314;49.248;6.968;2023-04-03T05:12:35;8.65;;;8.05;;
27977;SDS011;15314;49.248;6.968;2023-04-03T05:13:36;9.32;;;8.63;;
27977;SDS011;15314;49.248;6.968;2023-04-03T05:14:36;7.97;;;7.47;;
27977;SDS011;15314;49.248;6.968;2023-04-03T05:15:37;9.20;;;8.30;;
27977;SDS011;15314;49.248;6.968;2023-04-03T05:16:38;8.80;;;8.05;;
27977;SDS011;15314;49.248;6.968;2023-04-03T05:17:38;9.90;;;9.00;;
27977;SDS011;15314;49.248;6.968;2023-04-03T05:18:39;11.40;;;8.57;;
27977;SDS011;15314;49.248;6.968;2023-04-03T05:19:40;8.85;;;8.00;;
27977;SDS011;15314;49.248;6.968;2023-04-03T05:20:40;9.32;;;8.52;;
27977;SDS011;15314;49.248;6.968;2023-04-03T05:21:43;10.70;;;9.50;;
27977;SDS011;15314;49.248;6.968;2023-04-03T05:22:43;10.88;;;9.77;;
27977;SDS011;15314;49.248;6.968;2023-04-03T05:23:44;12.70;;;11.40;;
27977;SDS011;15314;49.248;6.968;2023-04-03T05:24:45;9.40;;;8.65;;
27977;SDS011;15314;49.248;6.968;2023-04-03T05:25:45;9.38;;;8.68;;
27977;SDS011;15314;49.248;6.968;2023-04-03T05:26:47;9.70;;;8.90;;
27977;SDS011;15314;49.248;6.968;2023-04-03T05:27:47;9.00;;;8.30;;
27977;SDS011;15314;49.248;6.968;2023-04-03T05:28:48;8.75;;;7.95;;
27977;SDS011;15314;49.248;6.968;2023-04-03T05:29:48;8.45;;;7.85;;
27977;SDS011;15314;49.248;6.968;2023-04-03T05:30:54;8.45;;;7.95;;
27977;SDS011;15314;49.248;6.968;2023-04-03T05:31:55;9.20;;;8.35;;
27977;SDS011;15314;49.248;6.968;2023-04-03T05:32:56;8.63;;;8.02;;
27977;SDS011;15314;49.248;6.968;2023-04-03T05:33:58;8.88;;;8.15;;
27977;SDS011;15314;49.248;6.968;2023-04-03T05:34:59;9.23;;;8.57;;
27977;SDS011;15314;49.248;6.968;2023-04-03T05:36:06;9.32;;;8.73;;
27977;SDS011;15314;49.248;6.968;2023-04-03T05:37:06;8.88;;;8.07;;
27977;SDS011;15314;49.248;6.968;2023-04-03T05:38:07;8.50;;;8.00;;
27977;SDS011;15314;49.248;6.968;2023-04-03T05:39:08;9.95;;;9.00;;
27977;SDS011;15314;49.248;6.968;2023-04-03T05:40:09;8.77;;;8.18;;
27977;SDS011;15314;49.248;6.968;2023-04-03T05:41:10;9.35;;;8.75;;
27977;SDS011;15314;49.248;6.968;2023-04-03T05:42:10;8.95;;;8.35;;
27977;SDS011;15314;49.248;6.968;2023-04-03T05:43:11;8.63;;;8.02;;
27977;SDS011;15314;49.248;6.968;2023-04-03T05:44:12;8.18;;;7.68;;
27977;SDS011;15314;49.248;6.968;2023-04-03T05:45:13;9.25;;;8.48;;
27977;SDS011;15314;49.248;6.968;2023-04-03T05:46:17;8.70;;;8.10;;
27977;SDS011;15314;49.248;6.968;2023-04-03T05:47:20;8.80;;;7.90;;
27977;SDS011;15314;49.248;6.968;2023-04-03T05:48:21;9.05;;;8.35;;
27977;SDS011;15314;49.248;6.968;2023-04-03T05:49:21;8.98;;;8.48;;
27977;SDS011;15314;49.248;6.968;2023-04-03T05:50:22;9.07;;;8.48;;
27977;SDS011;15314;49.248;6.968;2023-04-03T05:51:28;9.60;;;8.88;;
27977;SDS011;15314;49.248;6.968;2023-04-03T05:52:33;9.05;;;8.40;;
27977;SDS011;15314;49.248;6.968;2023-04-03T05:53:37;8.73;;;8.02;;
27977;SDS011;15314;49.248;6.968;2023-04-03T05:54:37;8.23;;;7.78;;
27977;SDS011;15314;49.248;6.968;2023-04-03T05:55:38;9.40;;;8.80;;
27977;SDS011;15314;49.248;6.968;2023-04-03T05:56:38;10.05;;;8.35;;
27977;SDS011;15314;49.248;6.968;2023-04-03T05:57:39;8.88;;;8.38;;
27977;SDS011;15314;49.248;6.968;2023-04-03T05:58:40;8.73;;;8.10;;
27977;SDS011;15314;49.248;6.968;2023-04-03T05:59:40;9.77;;;8.95;;
27977;SDS011;15314;49.248;6.968;2023-04-03T06:00:42;9.45;;;8.85;;
27977;SDS011;15314;49.248;6.968;2023-04-03T06:01:42;9.38;;;8.70;;
27977;SDS011;15314;49.248;6.968;2023-04-03T06:02:43;9.32;;;8.63;;
27977;SDS011;15314;49.248;6.968;2023-04-03T06:03:44;9.00;;;8.10;;
27977;SDS011;15314;49.248;6.968;2023-04-03T06:04:45;9.10;;;8.50;;
27977;SDS011;15314;49.248;6.968;2023-04-03T06:05:47;8.90;;;8.40;;
27977;SDS011;15314;49.248;6.968;2023-04-03T06:06:57;8.35;;;7.85;;
27977;SDS011;15314;49.248;6.968;2023-04-03T06:07:58;9.45;;;8.73;;
27977;SDS011;15314;49.248;6.968;2023-04-03T06:08:58;9.18;;;8.48;;
27977;SDS011;15314;49.248;6.968;2023-04-03T06:09:59;9.38;;;8.68;;
27977;SDS011;15314;49.248;6.968;2023-04-03T06:11:01;10.15;;;9.25;;
27977;SDS011;15314;49.248;6.968;2023-04-03T06:12:02;9.65;;;9.07;;
27977;SDS011;15314;49.248;6.968;2023-04-03T06:13:03;9.15;;;8.65;;
27977;SDS011;15314;49.248;6.968;2023-04-03T06:14:04;9.50;;;8.88;;
27977;SDS011;15314;49.248;6.968;2023-04-03T06:15:04;9.13;;;8.60;;